Time;durP1;ratioP1;P1;durP2;ratioP2;P2;SDS_P1;SDS_P2;PMS_P1;PMS_P2;Temp;Humidity;BMP_temperature;BMP_pressure;BME280_temperature;BME280_humidity;BME280_pressure;Samples;Min_cycle;Max_cycle;Signal;HPM_P1;HPM_P2
2022/05/07 00:02:08;;;;;;;29.97;21.20;;;13.40;73.50;;;;;;4961089;28;46475;-63
2022/05/07 00:04:35;;;;;;;25.77;20.80;;;13.40;73.60;;;;;;4962690;28;46621;-63
2022/05/07 00:07:01;;;;;;;24.90;19.93;;;13.40;73.60;;;;;;4961854;28;46958;-63
2022/05/07 00:09:27;;;;;;;31.93;22.30;;;13.40;73.50;;;;;;4961916;28;46292;-64
2022/05/07 00:11:52;;;;;;;36.13;23.33;;;13.40;73.50;;;;;;4961117;28;45927;-64
2022/05/07 00:14:18;;;;;;;29.03;22.63;;;13.20;74.10;;;;;;4962827;28;46623;-64
2022/05/07 00:19:28;;;;;;;37.40;24.97;;;13.10;74.60;;;;;;4961877;28;46458;-63
2022/05/07 00:21:54;;;;;;;36.83;26.23;;;13.10;75.00;;;;;;4961987;28;46408;-63
2022/05/07 00:24:20;;;;;;;35.23;25.80;;;13.10;75.30;;;;;;4961912;28;46287;-63
2022/05/07 00:26:45;;;;;;;37.90;27.10;;;13.10;75.30;;;;;;4962092;28;46359;-64
2022/05/07 00:29:12;;;;;;;37.03;26.73;;;13.00;75.30;;;;;;4960554;28;46314;-63
2022/05/07 00:31:38;;;;;;;37.60;27.23;;;13.00;75.30;;;;;;4961893;28;46319;-64
2022/05/07 00:34:05;;;;;;;37.73;28.40;;;13.00;75.50;;;;;;4962523;28;46420;-63
2022/05/07 00:36:30;;;;;;;38.40;27.93;;;12.90;75.50;;;;;;4961223;28;46308;-64
2022/05/07 00:38:56;;;;;;;40.50;29.40;;;13.00;75.80;;;;;;4957504;28;46510;-64
2022/05/07 00:41:22;;;;;;;46.97;31.63;;;12.90;75.90;;;;;;4954800;28;46454;-65
2022/05/07 00:43:47;;;;;;;42.00;29.50;;;12.90;76.20;;;;;;4960674;28;46292;-64
2022/05/07 00:46:13;;;;;;;39.97;28.70;;;12.80;76.40;;;;;;4961593;28;46000;-64
2022/05/07 00:48:39;;;;;;;44.40;31.43;;;12.90;76.30;;;;;;4958948;28;46375;-64
2022/05/07 00:53:50;;;;;;;43.47;31.83;;;12.80;76.10;;;;;;4960954;28;46468;-64
2022/05/07 00:56:16;;;;;;;48.77;33.97;;;12.80;76.40;;;;;;4958801;28;46521;-63
2022/05/07 00:58:42;;;;;;;47.87;32.97;;;12.90;76.20;;;;;;4959359;28;46367;-63
2022/05/07 01:01:08;;;;;;;43.93;31.10;;;12.90;75.80;;;;;;4961335;28;46483;-64
2022/05/07 01:03:34;;;;;;;42.60;31.20;;;13.00;75.60;;;;;;4960939;28;46418;-63
2022/05/07 01:06:00;;;;;;;39.60;28.73;;;13.10;75.50;;;;;;4960814;28;46551;-63
2022/05/07 01:08:29;;;;;;;42.90;30.17;;;13.10;75.20;;;;;;4960557;28;46470;-63
2022/05/07 01:10:56;;;;;;;41.37;30.30;;;13.10;75.20;;;;;;4959662;28;46502;-63
2022/05/07 01:13:22;;;;;;;43.77;31.00;;;13.10;75.20;;;;;;4960818;28;46268;-63
2022/05/07 01:15:53;;;;;;;47.87;31.80;;;13.10;75.20;;;;;;4960891;28;46169;-63
2022/05/07 01:18:19;;;;;;;39.10;29.47;;;13.10;75.20;;;;;;4958446;28;46438;-64
2022/05/07 01:20:44;;;;;;;42.50;29.63;;;13.10;75.20;;;;;;4960599;28;46264;-63
2022/05/07 01:23:11;;;;;;;42.70;29.70;;;13.10;75.20;;;;;;4960894;28;46286;-63
2022/05/07 01:25:37;;;;;;;47.70;32.30;;;13.10;75.30;;;;;;4960973;28;47276;-64
2022/05/07 01:28:03;;;;;;;38.30;28.40;;;13.10;75.20;;;;;;4960858;28;46408;-64
2022/05/07 01:30:29;;;;;;;40.63;28.57;;;13.10;75.20;;;;;;4960763;28;45841;-63
2022/05/07 01:32:55;;;;;;;34.60;25.87;;;13.10;75.20;;;;;;4960978;28;46427;-64
2022/05/07 01:35:20;;;;;;;36.77;26.37;;;13.10;75.20;;;;;;4960589;28;48317;-64
2022/05/07 01:37:46;;;;;;;37.03;27.03;;;13.10;75.30;;;;;;4961224;28;46472;-63
2022/05/07 01:40:11;;;;;;;36.93;26.73;;;13.10;75.40;;;;;;4960583;28;46525;-63
2022/05/07 01:42:37;;;;;;;37.60;27.07;;;13.10;75.70;;;;;;4960372;28;46415;-64
2022/05/07 01:45:03;;;;;;;35.20;26.40;;;13.10;75.40;;;;;;4960707;28;48859;-64
2022/05/07 01:50:14;;;;;;;31.83;23.93;;;13.10;75.40;;;;;;4963545;28;46370;-63
2022/05/07 01:52:39;;;;;;;33.10;23.70;;;13.00;75.50;;;;;;4964328;28;46578;-64
2022/05/07 01:55:05;;;;;;;34.57;25.50;;;13.10;75.50;;;;;;4963947;28;46340;-63
2022/05/07 01:57:31;;;;;;;38.47;27.00;;;13.10;75.40;;;;;;4963772;28;46431;-64
2022/05/07 01:59:56;;;;;;;39.40;28.33;;;13.10;75.30;;;;;;4962802;28;46380;-64
2022/05/07 02:02:22;;;;;;;47.53;33.80;;;13.10;75.20;;;;;;4964056;28;45903;-64
2022/05/07 02:04:48;;;;;;;46.20;31.20;;;13.10;75.40;;;;;;4964200;28;46316;-64
2022/05/07 02:07:13;;;;;;;45.57;32.80;;;13.10;75.60;;;;;;4963152;28;45981;-63
2022/05/07 02:09:39;;;;;;;46.10;33.07;;;13.10;75.50;;;;;;4963546;28;46430;-63
2022/05/07 02:12:04;;;;;;;51.30;32.93;;;13.10;75.60;;;;;;4964198;28;45942;-63
2022/05/07 02:14:32;;;;;;;47.10;33.03;;;13.20;75.40;;;;;;4963054;28;46449;-63
2022/05/07 02:16:58;;;;;;;43.70;28.97;;;13.20;75.40;;;;;;4963318;28;46442;-64
2022/05/07 02:19:23;;;;;;;41.63;30.53;;;13.20;75.20;;;;;;4963303;28;45979;-64
2022/05/07 02:21:49;;;;;;;40.90;30.57;;;13.20;75.20;;;;;;4963339;28;46351;-63
2022/05/07 02:24:14;;;;;;;47.87;31.80;;;13.30;75.10;;;;;;4963588;28;46652;-64
2022/05/07 02:26:41;;;;;;;42.43;31.20;;;13.30;75.10;;;;;;4963882;28;46472;-63
2022/05/07 02:29:06;;;;;;;42.60;30.27;;;13.30;75.00;;;;;;4962475;28;46371;-63
2022/05/07 02:31:32;;;;;;;41.63;31.20;;;13.30;75.00;;;;;;4963975;28;46395;-64
2022/05/07 02:33:57;;;;;;;38.70;29.33;;;13.30;75.10;;;;;;4963671;28;46099;-64
2022/05/07 02:36:23;;;;;;;48.90;30.67;;;13.30;75.30;;;;;;4963152;28;46459;-64
2022/05/07 02:38:49;;;;;;;41.57;30.60;;;13.30;75.20;;;;;;4963222;28;46336;-64
2022/05/07 02:43:58;;;;;;;42.30;30.10;;;13.30;75.40;;;;;;4963258;28;46452;-62
2022/05/07 02:46:24;;;;;;;50.50;34.17;;;13.30;75.40;;;;;;4964085;28;46412;-63
2022/05/07 02:48:49;;;;;;;49.33;33.10;;;13.30;75.30;;;;;;4961936;28;46453;-63
2022/05/07 02:51:16;;;;;;;51.67;31.83;;;13.20;75.50;;;;;;4963351;28;46568;-63
2022/05/07 02:53:41;;;;;;;44.00;31.80;;;13.20;75.50;;;;;;4962753;28;46382;-64
2022/05/07 02:56:07;;;;;;;47.13;33.27;;;13.10;75.80;;;;;;4963238;28;46398;-62
2022/05/07 02:58:33;;;;;;;50.10;33.90;;;13.10;76.30;;;;;;4961631;28;46596;-64
2022/05/07 03:00:58;;;;;;;45.03;33.50;;;13.10;76.40;;;;;;4962493;28;46556;-61
2022/05/07 03:03:25;;;;;;;47.30;34.63;;;13.10;76.40;;;;;;4963074;28;46545;-63
2022/05/07 03:05:52;;;;;;;46.40;33.20;;;13.10;76.30;;;;;;4963093;28;46437;-63
2022/05/07 03:08:17;;;;;;;47.43;34.00;;;13.10;75.90;;;;;;4962531;28;46540;-64
2022/05/07 03:10:43;;;;;;;53.27;34.30;;;13.20;75.90;;;;;;4963084;28;46605;-64
2022/05/07 03:13:08;;;;;;;46.40;34.20;;;13.20;75.80;;;;;;4962132;28;46406;-64
2022/05/07 03:15:34;;;;;;;50.80;35.03;;;13.20;75.90;;;;;;4963239;28;45845;-63
2022/05/07 03:18:00;;;;;;;52.60;34.60;;;13.20;75.80;;;;;;4963048;28;46214;-65
2022/05/07 03:20:25;;;;;;;49.63;35.10;;;13.20;75.90;;;;;;4962509;28;46638;-64
2022/05/07 03:22:51;;;;;;;46.37;32.57;;;13.20;75.80;;;;;;4962213;28;46435;-63
2022/05/07 03:25:16;;;;;;;46.83;34.00;;;13.10;76.10;;;;;;4963257;28;46350;-64
2022/05/07 03:27:42;;;;;;;55.00;34.23;;;13.10;76.20;;;;;;4962200;28;46401;-63
2022/05/07 03:30:08;;;;;;;54.80;37.17;;;13.20;76.40;;;;;;4962442;28;46452;-63
2022/05/07 03:32:34;;;;;;;46.77;33.60;;;13.10;76.30;;;;;;4962529;28;46472;-63
2022/05/07 03:35:00;;;;;;;55.80;34.60;;;13.20;76.00;;;;;;4962633;28;45942;-63
2022/05/07 03:37:25;;;;;;;46.20;33.67;;;13.20;75.80;;;;;;4962360;28;46473;-63
2022/05/07 03:39:52;;;;;;;51.00;34.90;;;13.20;76.20;;;;;;4962024;28;46648;-64
2022/05/07 03:42:19;;;;;;;50.87;36.00;;;13.20;76.20;;;;;;4962266;28;47079;-64
2022/05/07 03:44:46;;;;;;;46.57;33.67;;;13.20;76.40;;;;;;4962061;28;46304;-65
2022/05/07 03:47:11;;;;;;;49.03;32.80;;;13.20;76.30;;;;;;4960301;28;45887;-65
2022/05/07 03:49:37;;;;;;;48.47;35.10;;;13.20;76.10;;;;;;4962461;28;46402;-63
2022/05/07 03:54:47;;;;;;;48.63;34.40;;;13.30;75.70;;;;;;4961503;28;46496;-63
2022/05/07 03:57:13;;;;;;;53.63;35.60;;;13.20;75.80;;;;;;4962847;28;46547;-64
2022/05/07 03:59:39;;;;;;;44.97;33.40;;;13.30;75.80;;;;;;4961744;28;46480;-63
2022/05/07 04:02:06;;;;;;;48.53;35.60;;;13.30;75.70;;;;;;4959147;28;46419;-63
2022/05/07 04:04:32;;;;;;;49.03;34.30;;;13.30;75.60;;;;;;4958014;28;46336;-63
2022/05/07 04:06:59;;;;;;;52.83;35.77;;;13.30;75.90;;;;;;4956336;28;46340;-64
2022/05/07 04:09:24;;;;;;;53.30;36.13;;;13.30;75.90;;;;;;4955877;28;45941;-64
2022/05/07 04:11:50;;;;;;;48.87;35.10;;;13.30;77.00;;;;;;4953940;28;46063;-64
2022/05/07 04:14:16;;;;;;;49.40;35.83;;;13.30;75.90;;;;;;4956102;28;46383;-64
2022/05/07 04:16:41;;;;;;;49.97;37.07;;;13.20;76.30;;;;;;4955756;28;46336;-65
2022/05/07 04:19:07;;;;;;;50.40;34.93;;;13.20;76.50;;;;;;4960542;28;46378;-62
2022/05/07 04:21:34;;;;;;;51.37;36.40;;;13.20;76.70;;;;;;4957196;28;46072;-64
2022/05/07 04:24:00;;;;;;;56.20;36.03;;;13.20;76.60;;;;;;4956244;28;46457;-63
2022/05/07 04:26:26;;;;;;;50.97;35.13;;;13.20;76.70;;;;;;4958038;28;46424;-64
2022/05/07 04:28:51;;;;;;;57.50;36.70;;;13.20;76.90;;;;;;4957280;28;45848;-62
2022/05/07 04:31:18;;;;;;;49.37;34.90;;;13.20;76.90;;;;;;4957036;28;47440;-63
2022/05/07 04:33:45;;;;;;;55.30;37.67;;;13.30;76.80;;;;;;4953944;28;46450;-63
2022/05/07 04:36:11;;;;;;;53.27;35.90;;;13.30;76.40;;;;;;4955883;28;46435;-64
2022/05/07 04:38:36;;;;;;;48.43;34.60;;;13.30;76.30;;;;;;4958010;28;46335;-64
2022/05/07 04:41:02;;;;;;;47.83;34.40;;;13.30;76.40;;;;;;4956391;28;46538;-63
2022/05/07 04:43:28;;;;;;;53.00;36.87;;;13.30;76.40;;;;;;4954935;28;46386;-63
2022/05/07 04:45:53;;;;;;;49.07;35.10;;;13.30;76.50;;;;;;4958150;28;46461;-64
2022/05/07 04:48:19;;;;;;;54.00;36.87;;;13.40;76.60;;;;;;4957059;28;46451;-64
2022/05/07 04:50:44;;;;;;;49.40;34.40;;;13.40;76.70;;;;;;4954601;28;46553;-64
2022/05/07 04:53:10;;;;;;;51.57;35.87;;;13.40;76.30;;;;;;4955375;28;46462;-64
2022/05/07 04:55:36;;;;;;;49.83;34.30;;;13.40;76.70;;;;;;4957758;28;46356;-65
2022/05/07 04:58:02;;;;;;;48.53;33.03;;;13.50;76.30;;;;;;4955648;28;46296;-63
2022/05/07 05:00:27;;;;;;;45.50;33.90;;;13.60;76.30;;;;;;4957372;28;46272;-63
2022/05/07 05:02:53;;;;;;;52.50;35.80;;;13.60;76.00;;;;;;4957078;28;46727;-65
2022/05/07 05:05:18;;;;;;;46.30;35.23;;;13.50;76.20;;;;;;4956872;28;46407;-64
2022/05/07 05:07:44;;;;;;;48.47;35.00;;;13.40;76.80;;;;;;4957481;28;46434;-63
2022/05/07 05:10:11;;;;;;;52.03;35.07;;;13.40;77.20;;;;;;4954031;28;47092;-63
2022/05/07 05:12:40;;;;;;;57.10;35.90;;;13.30;77.70;;;;;;4957735;28;46517;-61
2022/05/07 05:15:08;;;;;;;49.30;35.70;;;13.20;77.90;;;;;;4956900;28;46566;-62
2022/05/07 05:17:34;;;;;;;45.17;33.87;;;13.20;77.80;;;;;;4961022;28;46607;-64
2022/05/07 05:20:02;;;;;;;50.30;34.77;;;13.20;77.90;;;;;;4959235;28;46519;-63
2022/05/07 05:22:28;;;;;;;47.27;33.77;;;13.30;77.70;;;;;;4960055;28;46370;-63
2022/05/07 05:24:54;;;;;;;54.00;34.27;;;13.30;77.60;;;;;;4964362;28;46402;-64
2022/05/07 05:27:20;;;;;;;60.60;35.90;;;13.30;77.50;;;;;;4964188;28;46406;-63
2022/05/07 05:29:46;;;;;;;51.90;35.50;;;13.40;77.50;;;;;;4963548;28;47258;-63
2022/05/07 05:32:17;;;;;;;44.17;33.40;;;13.40;77.50;;;;;;4957698;28;45944;-63
2022/05/07 05:34:52;;;;;;;55.30;36.63;;;13.50;77.50;;;;;;4961163;28;45922;-63
2022/05/07 05:37:18;;;;;;;47.00;32.77;;;13.40;77.40;;;;;;4962747;28;46434;-63
2022/05/07 05:39:44;;;;;;;47.83;34.60;;;13.40;77.60;;;;;;4962992;28;46698;-63
2022/05/07 05:42:09;;;;;;;48.83;32.97;;;13.50;77.50;;;;;;4963757;28;46521;-64
2022/05/07 05:44:37;;;;;;;44.63;33.27;;;13.50;77.60;;;;;;4964425;28;46499;-63
2022/05/07 05:47:03;;;;;;;45.47;34.00;;;13.50;77.60;;;;;;4963281;28;46323;-63
2022/05/07 05:49:29;;;;;;;44.23;32.80;;;13.50;78.70;;;;;;4963758;28;47201;-63
2022/05/07 05:51:54;;;;;;;45.17;33.60;;;13.70;77.10;;;;;;4963795;28;46244;-64
2022/05/07 05:54:20;;;;;;;44.97;32.73;;;13.70;77.10;;;;;;4961939;28;46332;-64
2022/05/07 05:56:45;;;;;;;41.07;31.87;;;13.70;77.20;;;;;;4963995;28;45973;-63
2022/05/07 05:59:11;;;;;;;45.23;33.10;;;13.70;77.10;;;;;;4962860;28;46444;-63
2022/05/07 06:01:36;;;;;;;42.90;30.50;;;13.70;76.90;;;;;;4962929;28;46432;-63
2022/05/07 06:04:03;;;;;;;47.47;32.30;;;13.80;77.00;;;;;;4964181;28;46423;-63
2022/05/07 06:06:29;;;;;;;41.90;30.83;;;13.90;76.40;;;;;;4964071;28;46470;-63
2022/05/07 06:08:55;;;;;;;47.53;31.50;;;13.90;77.60;;;;;;4961633;28;47049;-64
2022/05/07 06:11:20;;;;;;;46.70;32.73;;;14.00;76.40;;;;;;4962028;28;46288;-64
2022/05/07 06:13:47;;;;;;;43.33;32.37;;;14.00;76.40;;;;;;4963883;28;46424;-63
2022/05/07 06:16:14;;;;;;;43.77;33.00;;;14.10;76.40;;;;;;4963598;28;46577;-63
2022/05/07 06:18:39;;;;;;;42.70;31.47;;;14.10;76.30;;;;;;4958941;28;48004;-64
2022/05/07 06:21:05;;;;;;;49.30;33.93;;;14.10;76.40;;;;;;4963734;28;46439;-64
2022/05/07 06:23:31;;;;;;;57.83;35.43;;;14.00;76.10;;;;;;4964969;28;46265;-64
2022/05/07 06:28:42;;;;;;;55.97;34.07;;;14.20;76.40;;;;;;4963073;28;46454;-63
2022/05/07 06:31:09;;;;;;;53.20;35.70;;;14.30;75.90;;;;;;4962249;28;46424;-63
2022/05/07 06:33:35;;;;;;;54.30;35.10;;;14.40;75.60;;;;;;4963167;28;46408;-64
2022/05/07 06:36:01;;;;;;;52.97;35.10;;;14.50;75.50;;;;;;4963555;28;46433;-63
2022/05/07 06:38:27;;;;;;;56.90;38.17;;;14.50;75.50;;;;;;4962701;28;46411;-63
2022/05/07 06:40:52;;;;;;;54.87;37.10;;;14.50;75.50;;;;;;4963432;28;46268;-63
2022/05/07 06:43:18;;;;;;;52.47;35.73;;;14.60;75.30;;;;;;4962967;28;46356;-63
2022/05/07 06:45:44;;;;;;;51.97;34.33;;;14.70;74.90;;;;;;4963618;28;46347;-64
2022/05/07 06:48:11;;;;;;;46.47;35.30;;;14.70;75.00;;;;;;4962803;28;46383;-65
2022/05/07 06:50:38;;;;;;;49.23;35.20;;;14.70;74.80;;;;;;4959217;28;46474;-63
2022/05/07 06:53:03;;;;;;;48.23;33.90;;;14.80;74.90;;;;;;4962541;28;46661;-64
2022/05/07 06:55:31;;;;;;;51.27;32.37;;;15.00;74.40;;;;;;4962890;28;46521;-63
2022/05/07 06:57:58;;;;;;;41.57;30.37;;;15.10;74.10;;;;;;4961054;28;46707;-63
2022/05/07 07:00:25;;;;;;;46.80;31.80;;;15.10;73.80;;;;;;4958567;28;46275;-63
2022/05/07 07:02:50;;;;;;;41.10;30.77;;;15.30;73.20;;;;;;4956836;28;46352;-63
2022/05/07 07:05:16;;;;;;;44.60;30.67;;;15.40;73.00;;;;;;4962311;28;45834;-64
2022/05/07 07:07:42;;;;;;;40.73;32.30;;;15.30;72.90;;;;;;4962854;28;46407;-63
2022/05/07 07:10:08;;;;;;;42.47;31.87;;;15.20;73.10;;;;;;4962230;28;46381;-64
2022/05/07 07:12:39;;;;;;;43.53;32.60;;;15.00;73.70;;;;;;4962451;28;46415;-64
2022/05/07 07:15:06;;;;;;;43.77;32.97;;;14.80;74.20;;;;;;4956591;28;46406;-64
2022/05/07 07:17:32;;;;;;;42.27;30.70;;;14.80;74.20;;;;;;4961682;28;46074;-63
2022/05/07 07:19:58;;;;;;;49.90;34.00;;;14.70;74.40;;;;;;4959982;28;46360;-63
2022/05/07 07:22:23;;;;;;;45.63;34.03;;;14.70;74.70;;;;;;4961741;28;46634;-62
2022/05/07 07:24:49;;;;;;;52.40;34.30;;;14.70;74.70;;;;;;4962936;28;46407;-62
2022/05/07 07:27:14;;;;;;;50.57;33.93;;;14.60;75.00;;;;;;4959857;28;48094;-63
2022/05/07 07:29:44;;;;;;;53.93;35.87;;;14.60;74.90;;;;;;4962563;28;46441;-62
2022/05/07 07:32:09;;;;;;;48.13;33.37;;;14.70;74.70;;;;;;4963660;28;46432;-64
2022/05/07 07:34:35;;;;;;;48.17;32.93;;;14.60;74.70;;;;;;4962603;28;45900;-64
2022/05/07 07:37:00;;;;;;;46.43;31.97;;;14.70;74.70;;;;;;4957855;28;46313;-63
2022/05/07 07:39:26;;;;;;;45.60;33.80;;;14.50;74.90;;;;;;4957953;28;46432;-64
2022/05/07 07:41:52;;;;;;;41.27;31.00;;;14.60;74.90;;;;;;4958212;28;46360;-63
2022/05/07 07:44:18;;;;;;;48.20;33.00;;;14.70;74.80;;;;;;4960492;28;46423;-63
2022/05/07 07:49:28;;;;;;;46.93;32.30;;;14.50;74.80;;;;;;4961170;28;46396;-63
2022/05/07 07:51:53;;;;;;;47.90;33.07;;;14.60;75.00;;;;;;4959805;28;46637;-63
2022/05/07 07:54:19;;;;;;;50.40;34.00;;;14.60;75.00;;;;;;4959546;28;46645;-63
2022/05/07 07:56:45;;;;;;;53.17;36.10;;;14.70;74.90;;;;;;4962459;28;47264;-63
2022/05/07 07:59:11;;;;;;;46.97;34.90;;;14.90;74.40;;;;;;4957903;28;46423;-63
2022/05/07 08:01:37;;;;;;;51.50;34.30;;;14.90;74.10;;;;;;4963159;28;46516;-64
2022/05/07 08:04:04;;;;;;;49.80;32.33;;;15.00;73.80;;;;;;4962969;28;46366;-63
2022/05/07 08:06:30;;;;;;;49.83;34.13;;;15.20;73.40;;;;;;4961284;28;46456;-63
2022/05/07 08:11:40;;;;;;;45.97;32.20;;;15.20;73.10;;;;;;4962016;28;46285;-63
2022/05/07 08:14:06;;;;;;;47.10;31.33;;;15.50;72.30;;;;;;4962321;28;46311;-63
2022/05/07 08:16:32;;;;;;;46.70;32.63;;;15.40;72.30;;;;;;4961896;28;48429;-64
2022/05/07 08:18:58;;;;;;;47.80;33.30;;;15.30;72.80;;;;;;4961402;28;45841;-64
2022/05/07 08:21:24;;;;;;;44.37;32.33;;;15.30;72.70;;;;;;4957617;28;46324;-64
2022/05/07 08:23:49;;;;;;;46.30;32.93;;;15.40;72.40;;;;;;4961998;28;46427;-63
2022/05/07 08:26:15;;;;;;;43.30;32.57;;;15.40;72.10;;;;;;4961625;28;46308;-63
2022/05/07 08:28:42;;;;;;;40.10;31.57;;;15.40;71.70;;;;;;4961418;28;46330;-63
2022/05/07 08:31:08;;;;;;;46.73;32.70;;;15.40;71.80;;;;;;4962308;28;46459;-64
2022/05/07 08:33:34;;;;;;;42.43;31.93;;;15.40;71.60;;;;;;4961546;28;46381;-65
2022/05/07 08:36:00;;;;;;;43.30;31.63;;;15.60;71.40;;;;;;4960578;28;46365;-63
2022/05/07 08:38:26;;;;;;;43.30;30.63;;;15.90;70.50;;;;;;4960803;28;46246;-63
2022/05/07 08:40:52;;;;;;;37.87;29.90;;;16.00;70.00;;;;;;4961583;28;46451;-64
2022/05/07 08:43:18;;;;;;;38.07;28.00;;;16.10;69.90;;;;;;4961735;28;46699;-63
2022/05/07 08:45:45;;;;;;;35.63;27.83;;;16.20;68.10;;;;;;4961636;28;46583;-63
2022/05/07 08:48:11;;;;;;;34.90;27.10;;;16.30;68.00;;;;;;4959965;28;46643;-62
2022/05/07 08:50:39;;;;;;;34.50;27.07;;;16.30;67.40;;;;;;4961374;28;46434;-64
2022/05/07 08:53:05;;;;;;;31.63;25.27;;;16.40;67.60;;;;;;4961846;28;46368;-63
2022/05/07 08:55:31;;;;;;;34.43;26.77;;;16.60;66.40;;;;;;4959902;28;48715;-63
2022/05/07 08:57:57;;;;;;;29.47;23.67;;;16.60;65.70;;;;;;4956311;28;45925;-63
2022/05/07 09:00:25;;;;;;;25.93;21.70;;;16.70;65.20;;;;;;4956455;28;46463;-63
2022/05/07 09:02:56;;;;;;;28.20;23.27;;;16.90;65.00;;;;;;4955637;28;46416;-63
2022/05/07 09:05:30;;;;;;;32.70;22.57;;;17.00;64.00;;;;;;4960982;28;46896;-63
2022/05/07 09:08:01;;;;;;;29.13;22.70;;;17.00;62.90;;;;;;4961788;28;45748;-63
2022/05/07 09:10:29;;;;;;;31.07;21.10;;;17.30;62.70;;;;;;4959318;28;46639;-63
2022/05/07 09:13:14;;;;;;;33.53;22.60;;;17.60;62.20;;;;;;4960129;28;46387;-63
2022/05/07 09:15:57;;;;;;;23.77;18.93;;;17.60;61.40;;;;;;4960868;28;46456;-63
2022/05/07 09:18:24;;;;;;;24.63;20.67;;;18.00;60.60;;;;;;4960567;28;45769;-63
2022/05/07 09:21:26;;;;;;;26.17;20.77;;;18.40;59.40;;;;;;4961034;28;46374;-64
2022/05/07 09:23:58;;;;;;;29.23;21.03;;;18.50;58.80;;;;;;4960550;28;46445;-65
2022/05/07 09:26:27;;;;;;;25.70;19.33;;;18.30;58.40;;;;;;4955886;28;46578;-63
2022/05/07 09:28:53;;;;;;;26.50;19.10;;;18.40;57.70;;;;;;4957157;28;46333;-64
2022/05/07 09:31:30;;;;;;;26.53;20.80;;;18.50;56.50;;;;;;4952687;28;46332;-64
2022/05/07 09:36:42;;;;;;;23.60;19.33;;;18.50;55.80;;;;;;4955719;28;46833;-64
2022/05/07 09:39:10;;;;;;;25.80;17.77;;;18.70;55.30;;;;;;4952393;28;46345;-65
2022/05/07 09:41:35;;;;;;;26.87;19.33;;;18.90;54.40;;;;;;4957286;28;45896;-64
2022/05/07 09:44:02;;;;;;;25.77;19.30;;;18.80;54.30;;;;;;4962586;28;46333;-65
2022/05/07 09:46:30;;;;;;;24.30;18.87;;;18.60;54.20;;;;;;4953190;28;46651;-65
2022/05/07 09:48:59;;;;;;;24.17;18.00;;;18.60;53.50;;;;;;4951924;28;46360;-66
2022/05/07 09:51:25;;;;;;;26.63;19.33;;;18.50;53.40;;;;;;4953283;28;46486;-64
2022/05/07 09:59:20;;;;;;;25.90;19.33;;;18.50;53.50;;;;;;4958261;28;46462;-65
2022/05/07 10:02:08;;;;;;;25.20;18.67;;;18.40;53.20;;;;;;4960816;28;46438;-64
2022/05/07 10:04:55;;;;;;;22.80;18.73;;;18.40;53.20;;;;;;4960784;28;46322;-64
2022/05/07 10:07:39;;;;;;;21.93;17.93;;;18.50;52.90;;;;;;4959984;28;46545;-64
2022/05/07 10:10:25;;;;;;;26.70;16.87;;;18.50;53.40;;;;;;4962439;28;46578;-64
2022/05/07 10:13:02;;;;;;;19.60;16.60;;;18.60;52.90;;;;;;4963762;28;46372;-64
2022/05/07 10:15:28;;;;;;;23.57;18.50;;;19.00;52.60;;;;;;4964643;28;46343;-64
2022/05/07 10:18:16;;;;;;;22.10;16.20;;;19.10;53.00;;;;;;4963840;28;46658;-64
2022/05/07 10:20:47;;;;;;;22.00;17.63;;;18.90;51.60;;;;;;4962955;28;46401;-64
2022/05/07 10:23:14;;;;;;;22.17;17.90;;;18.50;52.20;;;;;;4962151;28;46484;-64
2022/05/07 10:25:54;;;;;;;21.50;18.40;;;18.40;52.50;;;;;;4963923;28;46348;-65
2022/05/07 10:28:20;;;;;;;23.43;17.63;;;18.00;53.40;;;;;;4963157;28;47074;-64
2022/05/07 10:30:54;;;;;;;23.40;19.17;;;17.80;54.20;;;;;;4964025;28;45769;-64
2022/05/07 10:33:21;;;;;;;24.73;17.53;;;17.60;55.70;;;;;;4962480;28;46491;-64
2022/05/07 10:35:54;;;;;;;19.23;17.20;;;17.30;55.10;;;;;;4959860;28;46009;-64
2022/05/07 10:38:37;;;;;;;23.43;18.13;;;17.30;55.60;;;;;;4959635;28;46365;-64
2022/05/07 10:41:12;;;;;;;21.50;18.00;;;17.20;56.00;;;;;;4961944;28;46458;-65
2022/05/07 10:43:40;;;;;;;24.60;18.43;;;17.30;55.90;;;;;;4963692;28;46304;-63
2022/05/07 10:46:23;;;;;;;24.10;18.63;;;17.20;55.90;;;;;;4963193;28;46667;-64
2022/05/07 10:49:04;;;;;;;22.17;17.93;;;17.20;56.10;;;;;;4961355;28;46374;-64
2022/05/07 10:51:53;;;;;;;27.30;17.37;;;17.10;56.10;;;;;;4962924;28;46414;-64
2022/05/07 10:54:18;;;;;;;24.90;18.90;;;17.10;56.10;;;;;;4962482;28;46233;-64
2022/05/07 10:56:57;;;;;;;27.67;20.87;;;16.80;57.00;;;;;;4960910;28;45878;-64
2022/05/07 10:59:26;;;;;;;24.17;18.30;;;16.60;57.70;;;;;;4960983;28;46468;-63
2022/05/07 11:02:02;;;;;;;25.20;16.40;;;16.40;57.50;;;;;;4961433;28;46678;-64
2022/05/07 11:04:27;;;;;;;22.07;16.00;;;16.50;57.60;;;;;;4956160;28;46404;-63
2022/05/07 11:06:53;;;;;;;21.60;18.03;;;16.40;57.50;;;;;;4959885;28;46407;-64
2022/05/07 11:09:26;;;;;;;20.80;17.23;;;16.30;58.70;;;;;;4962019;28;46366;-64
2022/05/07 11:11:54;;;;;;;19.30;14.70;;;16.10;59.50;;;;;;4961876;28;46332;-64
2022/05/07 11:14:26;;;;;;;20.53;15.47;;;16.00;60.20;;;;;;4962947;28;46415;-63
2022/05/07 11:16:55;;;;;;;19.17;15.30;;;16.00;60.50;;;;;;4962655;28;46408;-63
2022/05/07 11:19:25;;;;;;;22.17;16.30;;;15.90;60.50;;;;;;4960894;28;47022;-63
2022/05/07 11:21:52;;;;;;;19.70;13.20;;;15.90;60.80;;;;;;4958860;28;46588;-65
2022/05/07 11:24:22;;;;;;;19.37;14.50;;;15.90;61.40;;;;;;4961756;28;46355;-64
2022/05/07 11:26:52;;;;;;;16.73;13.43;;;15.90;61.60;;;;;;4961330;28;46894;-64
2022/05/07 11:29:18;;;;;;;20.23;15.87;;;15.80;61.90;;;;;;4959121;28;48209;-64
2022/05/07 11:31:54;;;;;;;20.70;15.83;;;15.80;62.00;;;;;;4960925;28;46431;-64
2022/05/07 11:34:28;;;;;;;19.37;15.00;;;15.80;62.10;;;;;;4961141;28;45878;-63
2022/05/07 11:36:53;;;;;;;20.90;16.80;;;15.90;62.00;;;;;;4960001;28;46362;-63
2022/05/07 11:39:19;;;;;;;23.13;16.57;;;15.80;62.30;;;;;;4960729;28;46350;-64
2022/05/07 11:41:53;;;;;;;20.87;15.90;;;15.80;62.60;;;;;;4960816;28;46368;-64
2022/05/07 11:47:23;;;;;;;17.40;14.40;;;15.80;62.80;;;;;;4948353;28;45821;-64
2022/05/07 11:50:05;;;;;;;18.70;15.20;;;15.80;62.90;;;;;;4956755;28;46355;-63
2022/05/07 11:52:30;;;;;;;22.90;17.63;;;15.80;63.10;;;;;;4959855;28;46449;-63
2022/05/07 11:54:56;;;;;;;21.00;15.83;;;15.70;63.30;;;;;;4956233;28;46418;-65
2022/05/07 11:57:29;;;;;;;22.53;17.03;;;15.80;63.30;;;;;;4960111;28;46704;-65
2022/05/07 11:59:55;;;;;;;20.17;15.10;;;15.90;64.70;;;;;;4959753;28;46404;-64
2022/05/07 12:02:21;;;;;;;18.67;14.90;;;15.80;63.70;;;;;;4960700;28;46287;-63
2022/05/07 12:04:56;;;;;;;18.27;14.57;;;15.90;63.60;;;;;;4960567;28;46379;-64
2022/05/07 12:07:22;;;;;;;20.43;15.53;;;15.90;63.30;;;;;;4960317;28;45737;-63
2022/05/07 12:09:48;;;;;;;18.40;14.80;;;15.90;63.70;;;;;;4960042;28;47126;-63
2022/05/07 12:12:13;;;;;;;19.07;14.53;;;16.00;63.90;;;;;;4958968;28;46655;-64
2022/05/07 12:14:40;;;;;;;20.57;15.00;;;16.10;63.50;;;;;;4959462;28;46426;-64
2022/05/07 12:19:50;;;;;;;15.80;13.10;;;16.20;63.50;;;;;;4959939;28;46424;-64
2022/05/07 12:30:39;;;;;;;17.33;14.57;;;16.60;62.80;;;;;;4929620;28;46058;-63
2022/05/07 12:33:05;;;;;;;18.73;13.90;;;16.70;62.50;;;;;;4960734;28;46483;-63
2022/05/07 12:35:30;;;;;;;18.77;14.17;;;16.90;62.00;;;;;;4958986;28;46934;-64
2022/05/07 12:37:56;;;;;;;16.70;13.77;;;17.10;61.80;;;;;;4960714;28;46795;-63
2022/05/07 12:40:22;;;;;;;17.37;13.40;;;17.40;61.00;;;;;;4957712;28;46378;-63
2022/05/07 12:42:48;;;;;;;18.50;15.03;;;17.40;60.60;;;;;;4958666;28;46351;-63
2022/05/07 12:45:14;;;;;;;17.30;14.50;;;17.50;60.70;;;;;;4961070;28;46451;-61
2022/05/07 12:47:40;;;;;;;20.23;15.30;;;17.40;60.80;;;;;;4961911;28;46405;-63
2022/05/07 12:50:07;;;;;;;17.23;14.37;;;17.10;61.60;;;;;;4960137;28;46350;-63
2022/05/07 12:52:32;;;;;;;19.40;15.63;;;16.90;62.40;;;;;;4960275;28;46775;-64
2022/05/07 12:54:58;;;;;;;18.80;14.93;;;16.90;62.30;;;;;;4959103;28;46331;-64
2022/05/07 12:57:24;;;;;;;21.63;15.83;;;17.00;62.30;;;;;;4957330;28;46728;-63
2022/05/07 12:59:49;;;;;;;18.87;15.70;;;17.00;62.00;;;;;;4959752;28;47311;-63
2022/05/07 13:02:15;;;;;;;19.53;15.23;;;17.10;62.00;;;;;;4960569;28;46374;-62
2022/05/07 13:04:41;;;;;;;19.00;16.20;;;17.20;61.80;;;;;;4960541;28;46388;-63
2022/05/07 13:07:08;;;;;;;17.70;15.17;;;17.20;61.80;;;;;;4959873;28;46415;-63
2022/05/07 13:09:35;;;;;;;18.50;15.00;;;17.40;61.60;;;;;;4957364;28;46451;-62
2022/05/07 13:12:02;;;;;;;18.23;14.87;;;17.70;60.90;;;;;;4955875;28;45837;-63
2022/05/07 13:14:30;;;;;;;23.03;15.37;;;18.00;60.00;;;;;;4958410;28;45832;-63